Time;durP1;ratioP1;P1;durP2;ratioP2;P2;SDS_P1;SDS_P2;PMS_P1;PMS_P2;Temp;Humidity;BMP_temperature;BMP_pressure;BME280_temperature;BME280_humidity;BME280_pressure;Samples;Min_cycle;Max_cycle;Signal;HPM_P1;HPM_P2
2023/03/14 00:01:21;;;;;;;0.30;0.20;;;8.80;99.90;;;;;;5073083;28;20995;-76
2023/03/14 00:03:47;;;;;;;0.30;0.20;;;8.80;99.90;;;;;;5073405;28;20855;-76
2023/03/14 00:06:15;;;;;;;0.30;0.20;;;8.80;99.90;;;;;;5073389;28;20452;-76
2023/03/14 00:08:43;;;;;;;0.30;0.20;;;8.80;99.90;;;;;;5073281;28;20469;-76
2023/03/14 00:11:12;;;;;;;3.53;0.50;;;8.80;99.90;;;;;;5073345;28;20446;-76
2023/03/14 00:13:41;;;;;;;0.30;0.20;;;8.80;99.90;;;;;;5073366;28;20811;-76
2023/03/14 00:16:10;;;;;;;0.40;0.30;;;8.90;99.90;;;;;;5073263;28;20499;-76
2023/03/14 00:18:37;;;;;;;0.30;0.20;;;8.90;99.90;;;;;;5073118;28;20489;-76
2023/03/14 00:21:05;;;;;;;0.30;0.30;;;8.90;99.90;;;;;;5074331;28;20445;-76
2023/03/14 00:23:34;;;;;;;0.47;0.47;;;8.90;99.90;;;;;;5077374;28;20453;-76
2023/03/14 00:26:01;;;;;;;0.30;0.27;;;8.80;99.90;;;;;;5077342;28;20449;-76
2023/03/14 00:28:28;;;;;;;0.30;0.20;;;8.80;99.90;;;;;;5077202;28;20462;-76
2023/03/14 00:30:56;;;;;;;0.40;0.30;;;8.80;99.90;;;;;;5077235;28;20502;-76
2023/03/14 00:33:23;;;;;;;0.30;0.30;;;8.80;99.90;;;;;;5077163;28;20453;-76
2023/03/14 00:35:54;;;;;;;1.07;0.30;;;8.80;99.90;;;;;;5077143;28;20807;-76
2023/03/14 00:38:21;;;;;;;0.30;0.27;;;8.70;99.90;;;;;;5076955;28;20838;-76
2023/03/14 00:40:48;;;;;;;0.33;0.30;;;8.70;99.90;;;;;;5076729;28;20464;-76
2023/03/14 00:43:15;;;;;;;0.30;0.20;;;8.80;99.90;;;;;;5076999;28;20483;-76
2023/03/14 00:45:41;;;;;;;0.30;0.20;;;8.80;99.90;;;;;;5076444;28;20851;-76
2023/03/14 00:48:10;;;;;;;1.13;0.40;;;8.80;99.90;;;;;;5076826;28;20461;-76
2023/03/14 00:50:36;;;;;;;0.37;0.30;;;8.80;99.90;;;;;;5076838;28;20446;-76
2023/03/14 00:53:03;;;;;;;0.40;0.30;;;8.80;99.90;;;;;;5076478;28;20932;-76
2023/03/14 00:55:30;;;;;;;0.30;0.20;;;8.80;99.90;;;;;;5076749;28;20477;-76
2023/03/14 00:57:56;;;;;;;0.30;0.30;;;8.80;99.90;;;;;;5076558;28;20488;-76
2023/03/14 01:00:23;;;;;;;0.30;0.20;;;8.90;99.90;;;;;;5076326;28;20963;-76
2023/03/14 01:02:50;;;;;;;0.30;0.20;;;8.80;99.90;;;;;;5076601;28;20477;-77
2023/03/14 01:05:18;;;;;;;0.30;0.30;;;8.80;99.90;;;;;;5076581;28;20434;-76
2023/03/14 01:07:45;;;;;;;0.40;0.30;;;8.80;99.90;;;;;;5076132;28;20457;-76
2023/03/14 01:10:12;;;;;;;0.30;0.30;;;8.80;99.90;;;;;;5076494;28;20449;-76
2023/03/14 01:12:38;;;;;;;0.30;0.20;;;8.80;99.90;;;;;;5076403;28;20449;-76
2023/03/14 01:15:06;;;;;;;0.50;0.30;;;8.90;99.90;;;;;;5076055;28;20456;-76
2023/03/14 01:17:33;;;;;;;0.30;0.20;;;8.90;99.90;;;;;;5075971;28;20483;-76
2023/03/14 01:20:01;;;;;;;0.30;0.20;;;9.00;99.90;;;;;;5076263;28;20503;-76
2023/03/14 01:22:29;;;;;;;0.30;0.30;;;8.90;99.90;;;;;;5076226;28;20457;-76
2023/03/14 01:24:56;;;;;;;0.30;0.20;;;8.90;99.90;;;;;;5076206;28;20441;-76
2023/03/14 01:27:23;;;;;;;1.53;0.40;;;8.90;99.90;;;;;;5076079;28;20442;-76
2023/03/14 01:29:49;;;;;;;0.30;0.27;;;8.90;99.90;;;;;;5076103;28;20451;-76
2023/03/14 01:32:16;;;;;;;0.30;0.20;;;8.90;99.90;;;;;;5074960;28;20449;-76
2023/03/14 01:34:43;;;;;;;0.30;0.20;;;8.80;99.90;;;;;;5075540;28;20949;-76
2023/03/14 01:37:11;;;;;;;0.30;0.30;;;8.80;99.90;;;;;;5075581;28;21043;-76
2023/03/14 01:39:39;;;;;;;0.30;0.30;;;8.90;99.90;;;;;;5075866;28;20501;-76
2023/03/14 01:42:06;;;;;;;0.30;0.20;;;8.80;99.90;;;;;;5076186;28;20438;-76
2023/03/14 01:44:48;;;;;;;0.30;0.30;;;8.80;99.90;;;;;;5075520;28;20821;-76
2023/03/14 01:47:15;;;;;;;0.30;0.30;;;8.70;99.90;;;;;;5075832;28;20445;-76
2023/03/14 01:49:42;;;;;;;0.30;0.20;;;8.70;99.90;;;;;;5075713;28;20464;-76
2023/03/14 01:52:13;;;;;;;0.40;0.30;;;8.70;99.90;;;;;;5075682;28;20445;-76
2023/03/14 01:54:43;;;;;;;0.30;0.30;;;8.60;99.90;;;;;;5075438;28;21012;-76
2023/03/14 01:57:14;;;;;;;1.13;0.60;;;8.60;99.90;;;;;;5075584;28;20444;-76
2023/03/14 01:59:44;;;;;;;0.37;0.30;;;8.60;99.90;;;;;;5076336;28;20462;-76
2023/03/14 02:02:14;;;;;;;0.30;0.20;;;8.60;99.90;;;;;;5075521;28;20487;-76
2023/03/14 02:04:42;;;;;;;0.77;0.40;;;8.50;99.90;;;;;;5075174;28;20458;-76
2023/03/14 02:07:15;;;;;;;0.30;0.23;;;8.50;99.90;;;;;;5075455;28;20475;-76
2023/03/14 02:09:56;;;;;;;0.30;0.30;;;8.60;99.90;;;;;;5074996;28;20985;-76
2023/03/14 02:12:37;;;;;;;0.40;0.30;;;8.60;99.90;;;;;;5075396;28;20433;-76
2023/03/14 02:15:05;;;;;;;0.30;0.20;;;8.60;99.90;;;;;;5075022;28;20441;-76
2023/03/14 02:17:32;;;;;;;0.30;0.30;;;8.60;99.90;;;;;;5075066;28;20485;-76
2023/03/14 02:20:12;;;;;;;0.30;0.20;;;8.60;99.90;;;;;;5075202;28;20446;-76
2023/03/14 02:22:42;;;;;;;0.30;0.20;;;8.50;99.90;;;;;;5075184;28;20432;-76
2023/03/14 02:25:15;;;;;;;0.30;0.20;;;8.60;99.90;;;;;;5074854;28;20441;-76
2023/03/14 02:27:44;;;;;;;0.30;0.20;;;8.60;99.90;;;;;;5075033;28;20422;-77
2023/03/14 02:30:13;;;;;;;0.30;0.30;;;8.50;99.90;;;;;;5074988;28;20460;-77
2023/03/14 02:32:44;;;;;;;0.30;0.30;;;8.50;99.90;;;;;;5074916;28;20449;-76
2023/03/14 02:35:14;;;;;;;0.30;0.23;;;8.50;99.90;;;;;;5074915;28;20438;-77
2023/03/14 02:37:44;;;;;;;0.30;0.30;;;8.60;99.90;;;;;;5074753;28;20465;-76
2023/03/14 02:40:12;;;;;;;0.30;0.30;;;8.60;99.90;;;;;;5074766;28;20471;-76
2023/03/14 02:42:39;;;;;;;0.30;0.30;;;8.60;99.90;;;;;;5074653;28;20461;-76
2023/03/14 02:45:32;;;;;;;0.30;0.30;;;8.60;99.90;;;;;;5073816;28;20485;-76
2023/03/14 02:48:05;;;;;;;0.30;0.20;;;8.50;99.90;;;;;;5075019;28;20457;-77
2023/03/14 02:50:34;;;;;;;0.30;0.20;;;8.50;99.90;;;;;;5074310;28;20925;-77
2023/03/14 02:53:01;;;;;;;0.40;0.30;;;8.50;99.90;;;;;;5074502;28;20465;-77
2023/03/14 02:55:28;;;;;;;0.30;0.20;;;8.40;99.90;;;;;;5074464;28;20457;-77
2023/03/14 02:57:55;;;;;;;9.40;0.67;;;8.40;99.90;;;;;;5073964;28;20996;-77
2023/03/14 03:00:22;;;;;;;1.00;0.30;;;8.30;99.90;;;;;;5074372;28;20456;-77
2023/03/14 03:02:50;;;;;;;0.30;0.30;;;8.30;99.90;;;;;;5074261;28;20460;-76
2023/03/14 03:05:17;;;;;;;0.60;0.60;;;8.20;99.90;;;;;;5074268;28;20472;-77
2023/03/14 03:07:43;;;;;;;0.30;0.20;;;8.20;99.90;;;;;;5073993;28;20491;-77
2023/03/14 03:10:11;;;;;;;0.30;0.30;;;8.20;99.90;;;;;;5074161;28;20453;-77
2023/03/14 03:12:38;;;;;;;0.47;0.47;;;8.20;99.90;;;;;;5074147;28;20446;-76
2023/03/14 03:15:05;;;;;;;0.30;0.20;;;8.20;99.90;;;;;;5074063;28;20453;-76
2023/03/14 03:17:32;;;;;;;0.30;0.30;;;8.10;99.90;;;;;;5073395;28;20449;-76
2023/03/14 03:20:00;;;;;;;0.30;0.30;;;8.10;99.90;;;;;;5074005;28;20446;-76
2023/03/14 03:22:27;;;;;;;0.30;0.30;;;8.00;99.90;;;;;;5073605;28;20450;-76
2023/03/14 03:24:53;;;;;;;0.30;0.20;;;8.00;99.90;;;;;;5073695;28;20442;-76
2023/03/14 03:27:20;;;;;;;0.30;0.20;;;8.00;99.90;;;;;;5073878;28;20449;-76
2023/03/14 03:29:47;;;;;;;3.50;0.40;;;8.00;99.90;;;;;;5073397;28;20468;-76
2023/03/14 03:32:14;;;;;;;0.30;0.30;;;7.90;99.90;;;;;;5073743;28;20456;-76
2023/03/14 03:34:40;;;;;;;0.43;0.43;;;7.90;99.90;;;;;;5073442;28;20454;-76
2023/03/14 03:37:09;;;;;;;0.40;0.37;;;7.90;99.90;;;;;;5073391;28;20446;-76
2023/03/14 03:39:35;;;;;;;0.30;0.30;;;7.80;99.90;;;;;;5073001;28;20486;-76
2023/03/14 03:42:02;;;;;;;1.80;0.80;;;7.80;99.90;;;;;;5073651;28;20445;-76
2023/03/14 03:44:29;;;;;;;0.30;0.20;;;7.70;99.90;;;;;;5073382;28;20445;-76
2023/03/14 03:47:02;;;;;;;0.30;0.30;;;7.60;99.90;;;;;;5073143;28;20493;-76
2023/03/14 03:49:38;;;;;;;0.43;0.30;;;7.60;99.90;;;;;;5073450;28;20474;-76
2023/03/14 03:52:14;;;;;;;0.30;0.20;;;7.60;99.90;;;;;;5072747;28;20454;-76
2023/03/14 03:54:49;;;;;;;0.30;0.30;;;7.60;99.90;;;;;;5073251;28;20460;-76
2023/03/14 03:57:18;;;;;;;0.30;0.30;;;7.60;99.90;;;;;;5073110;28;20445;-76
2023/03/14 03:59:44;;;;;;;1.13;0.40;;;7.60;99.90;;;;;;5073241;28;20497;-76
2023/03/14 04:02:11;;;;;;;0.30;0.30;;;7.50;99.90;;;;;;5073179;28;20434;-76
2023/03/14 04:04:38;;;;;;;1.07;0.40;;;7.50;99.90;;;;;;5073377;28;20449;-76
2023/03/14 04:07:05;;;;;;;0.30;0.30;;;7.50;99.90;;;;;;5073038;28;20481;-77
2023/03/14 04:09:33;;;;;;;0.30;0.20;;;7.50;99.90;;;;;;5072957;28;20822;-77
2023/03/14 04:12:00;;;;;;;0.30;0.20;;;7.50;99.90;;;;;;5073349;28;20449;-76
2023/03/14 04:14:27;;;;;;;0.30;0.30;;;7.50;99.90;;;;;;5073310;28;20449;-76
2023/03/14 04:16:53;;;;;;;0.30;0.20;;;7.50;99.90;;;;;;5073274;28;20449;-76
2023/03/14 04:19:21;;;;;;;0.30;0.20;;;7.60;99.90;;;;;;5073428;28;20485;-77
2023/03/14 04:21:48;;;;;;;0.30;0.20;;;7.60;99.90;;;;;;5073226;28;20457;-76
2023/03/14 04:24:14;;;;;;;0.30;0.30;;;7.50;99.90;;;;;;5073185;28;20445;-76
2023/03/14 04:26:42;;;;;;;0.40;0.30;;;7.60;99.90;;;;;;5072975;28;20863;-76
2023/03/14 04:29:09;;;;;;;0.30;0.20;;;7.60;99.90;;;;;;5073065;28;20470;-76
2023/03/14 04:31:36;;;;;;;0.43;0.40;;;7.60;99.90;;;;;;5073040;28;20449;-77
2023/03/14 04:34:02;;;;;;;0.30;0.30;;;7.70;99.90;;;;;;5072811;28;20844;-76
2023/03/14 04:36:29;;;;;;;0.30;0.20;;;7.70;99.90;;;;;;5073027;28;20453;-76
2023/03/14 04:38:56;;;;;;;0.30;0.30;;;7.70;99.90;;;;;;5072889;28;20489;-77
2023/03/14 04:41:22;;;;;;;0.73;0.60;;;7.70;99.90;;;;;;5073067;28;20441;-77
2023/03/14 04:43:51;;;;;;;0.30;0.20;;;7.70;99.90;;;;;;5073002;28;20454;-76
2023/03/14 04:46:17;;;;;;;0.30;0.20;;;7.70;99.90;;;;;;5072513;28;20481;-76
2023/03/14 04:48:44;;;;;;;0.40;0.33;;;7.70;99.90;;;;;;5072884;28;20461;-76
2023/03/14 04:51:11;;;;;;;0.30;0.30;;;7.60;99.90;;;;;;5072932;28;20444;-76
2023/03/14 04:53:37;;;;;;;0.30;0.20;;;7.60;99.90;;;;;;5072852;28;20445;-76
2023/03/14 04:56:05;;;;;;;0.40;0.30;;;7.60;99.90;;;;;;5072533;28;20883;-76
2023/03/14 04:58:31;;;;;;;0.30;0.30;;;7.60;99.90;;;;;;5072733;28;20485;-77
2023/03/14 05:01:04;;;;;;;0.30;0.20;;;7.60;99.90;;;;;;5072478;28;20944;-76
2023/03/14 05:03:31;;;;;;;5.70;0.30;;;7.60;99.90;;;;;;5072883;28;20432;-76
2023/03/14 05:05:58;;;;;;;0.80;0.30;;;7.60;99.90;;;;;;5072736;28;20453;-77
2023/03/14 05:08:25;;;;;;;0.30;0.30;;;7.60;99.90;;;;;;5075633;28;20473;-77
2023/03/14 05:10:55;;;;;;;0.30;0.30;;;7.60;99.90;;;;;;5076411;28;20445;-77
2023/03/14 05:13:24;;;;;;;0.30;0.30;;;7.60;99.90;;;;;;5076080;28;20449;-77
2023/03/14 05:15:51;;;;;;;1.33;0.50;;;7.50;99.90;;;;;;5076326;28;20446;-77
2023/03/14 05:18:19;;;;;;;0.30;0.20;;;7.50;99.90;;;;;;5076138;28;20596;-77
2023/03/14 05:20:46;;;;;;;0.30;0.30;;;7.60;99.90;;;;;;5075920;28;20971;-77
2023/03/14 05:23:13;;;;;;;0.30;0.30;;;7.60;99.90;;;;;;5076223;28;20457;-77
2023/03/14 05:25:39;;;;;;;0.40;0.40;;;7.70;99.90;;;;;;5076182;28;20442;-77
2023/03/14 05:28:06;;;;;;;0.30;0.20;;;7.70;99.90;;;;;;5075854;28;20453;-76
2023/03/14 05:30:33;;;;;;;0.30;0.20;;;7.80;99.90;;;;;;5076061;28;20460;-77
2023/03/14 05:33:00;;;;;;;0.30;0.20;;;7.80;99.90;;;;;;5076014;28;20456;-76
2023/03/14 05:35:28;;;;;;;0.40;0.40;;;7.90;99.90;;;;;;5075699;28;20963;-76
2023/03/14 05:37:55;;;;;;;0.30;0.30;;;7.90;99.90;;;;;;5075853;28;20478;-76
2023/03/14 05:40:21;;;;;;;0.30;0.30;;;7.90;99.90;;;;;;5075827;28;20484;-76
2023/03/14 05:42:48;;;;;;;0.30;0.20;;;8.00;99.90;;;;;;5075567;28;20846;-76
2023/03/14 05:45:15;;;;;;;0.80;0.40;;;8.00;99.90;;;;;;5075651;28;20480;-77
2023/03/14 05:47:42;;;;;;;0.60;0.43;;;8.00;99.90;;;;;;5075481;28;20444;-77
2023/03/14 05:50:09;;;;;;;6.73;1.50;;;7.90;99.90;;;;;;5075797;28;20445;-76
2023/03/14 05:52:38;;;;;;;0.40;0.30;;;7.90;99.90;;;;;;5075776;28;20449;-76
2023/03/14 05:55:06;;;;;;;0.30;0.20;;;7.90;99.90;;;;;;5075412;28;20438;-76
2023/03/14 05:57:32;;;;;;;0.30;0.20;;;7.90;99.90;;;;;;5075539;28;20454;-76
2023/03/14 05:59:59;;;;;;;0.30;0.30;;;7.90;99.90;;;;;;5075510;28;20481;-77
2023/03/14 06:02:26;;;;;;;0.30;0.30;;;7.90;99.90;;;;;;5075523;28;20468;-76
2023/03/14 06:04:53;;;;;;;0.63;0.30;;;7.90;99.90;;;;;;5075447;28;20449;-77
2023/03/14 06:07:20;;;;;;;0.30;0.30;;;7.90;99.90;;;;;;5075391;28;20449;-76
2023/03/14 06:09:48;;;;;;;0.30;0.30;;;8.00;99.90;;;;;;5075312;28;20469;-76
2023/03/14 06:12:14;;;;;;;3.03;1.80;;;8.10;99.90;;;;;;5075328;28;20824;-77
2023/03/14 06:14:41;;;;;;;0.30;0.30;;;8.10;99.90;;;;;;5075211;28;20452;-76
2023/03/14 06:17:08;;;;;;;0.30;0.30;;;8.20;99.90;;;;;;5075212;28;20453;-76
2023/03/14 06:19:34;;;;;;;0.30;0.30;;;8.30;99.90;;;;;;5074814;28;20871;-76
2023/03/14 06:22:01;;;;;;;0.50;0.50;;;8.30;99.90;;;;;;5075082;28;20515;-77
2023/03/14 06:24:28;;;;;;;0.87;0.30;;;8.40;99.90;;;;;;5075130;28;20445;-77
2023/03/14 06:26:56;;;;;;;0.30;0.20;;;8.40;99.90;;;;;;5074701;28;20984;-77
2023/03/14 06:29:22;;;;;;;0.30;0.30;;;8.50;99.90;;;;;;5074990;28;20468;-76
2023/03/14 06:31:49;;;;;;;0.30;0.20;;;8.50;99.90;;;;;;5074797;28;20804;-76
2023/03/14 06:34:16;;;;;;;0.30;0.30;;;8.50;99.90;;;;;;5074853;28;20445;-77
2023/03/14 06:36:42;;;;;;;0.30;0.30;;;8.60;99.90;;;;;;5074513;28;20449;-77
2023/03/14 06:39:09;;;;;;;0.40;0.40;;;8.60;99.90;;;;;;5074385;28;20481;-76
2023/03/14 06:41:36;;;;;;;0.30;0.20;;;8.60;99.90;;;;;;5074800;28;20441;-76
2023/03/14 06:44:04;;;;;;;0.30;0.30;;;8.60;99.90;;;;;;5074722;28;20445;-77
2023/03/14 06:46:31;;;;;;;0.30;0.20;;;8.60;99.90;;;;;;5074180;28;20465;-76
2023/03/14 06:48:57;;;;;;;0.30;0.20;;;8.70;99.90;;;;;;5074228;28;21009;-76
2023/03/14 06:51:24;;;;;;;0.60;0.30;;;8.70;99.90;;;;;;5074212;28;20948;-76
2023/03/14 06:53:51;;;;;;;0.53;0.53;;;8.90;99.90;;;;;;5074470;28;20457;-77
2023/03/14 06:56:17;;;;;;;0.30;0.20;;;9.10;99.90;;;;;;5074464;28;20441;-76
2023/03/14 06:58:45;;;;;;;0.40;0.40;;;9.20;99.90;;;;;;5073959;28;20477;-77
2023/03/14 07:01:21;;;;;;;0.30;0.20;;;9.30;99.90;;;;;;5074092;28;20875;-77
2023/03/14 07:03:48;;;;;;;0.40;0.30;;;9.30;99.90;;;;;;5074011;28;20909;-77
2023/03/14 07:06:15;;;;;;;0.33;0.27;;;9.20;99.90;;;;;;5074238;28;20458;-76
2023/03/14 07:08:42;;;;;;;0.30;0.20;;;9.30;99.90;;;;;;5074130;28;20469;-76
2023/03/14 07:11:09;;;;;;;0.30;0.30;;;9.40;99.90;;;;;;5074168;28;20453;-77
2023/03/14 07:13:36;;;;;;;0.30;0.30;;;9.50;99.90;;;;;;5073781;28;20841;-77
2023/03/14 07:16:03;;;;;;;0.30;0.30;;;9.50;99.90;;;;;;5074063;28;20461;-76
2023/03/14 07:18:31;;;;;;;0.30;0.20;;;9.60;99.90;;;;;;5073958;28;20477;-77
2023/03/14 07:20:58;;;;;;;0.30;0.30;;;9.70;99.90;;;;;;5073652;28;20499;-77
2023/03/14 07:23:25;;;;;;;0.30;0.30;;;9.70;99.90;;;;;;5073883;28;20449;-77
2023/03/14 07:25:53;;;;;;;0.40;0.30;;;9.80;99.90;;;;;;5073610;28;20942;-77
2023/03/14 07:28:20;;;;;;;0.30;0.30;;;9.80;99.90;;;;;;5073773;28;20470;-77
2023/03/14 07:30:47;;;;;;;0.40;0.30;;;10.00;99.90;;;;;;5073802;28;20445;-77
2023/03/14 07:33:14;;;;;;;0.30;0.20;;;10.20;99.90;;;;;;5073781;28;20472;-77
2023/03/14 07:35:42;;;;;;;0.50;0.40;;;10.30;99.90;;;;;;5073534;28;20441;-76
2023/03/14 07:38:09;;;;;;;0.30;0.30;;;10.30;99.90;;;;;;5073697;28;20461;-77
2023/03/14 07:40:35;;;;;;;0.30;0.30;;;10.30;99.90;;;;;;5073315;28;20474;-76
2023/03/14 07:43:02;;;;;;;0.30;0.20;;;10.40;99.90;;;;;;5073680;28;20533;-77
2023/03/14 07:45:29;;;;;;;0.30;0.30;;;10.40;99.90;;;;;;5073356;28;20469;-77
2023/03/14 07:47:57;;;;;;;0.30;0.20;;;10.50;99.90;;;;;;5073523;28;20480;-77
2023/03/14 07:50:24;;;;;;;0.30;0.20;;;10.60;99.90;;;;;;5073557;28;20499;-77
2023/03/14 07:52:52;;;;;;;0.33;0.27;;;10.70;99.90;;;;;;5073297;28;20803;-77
2023/03/14 07:55:19;;;;;;;0.30;0.20;;;10.70;99.90;;;;;;5073549;28;20445;-77
2023/03/14 07:57:45;;;;;;;0.30;0.30;;;10.80;99.90;;;;;;5073105;28;20477;-76
2023/03/14 08:00:13;;;;;;;0.40;0.30;;;11.00;99.90;;;;;;5073367;28;20492;-77
2023/03/14 08:02:40;;;;;;;1.10;0.30;;;11.30;99.90;;;;;;5073412;28;20499;-77
2023/03/14 08:05:08;;;;;;;0.30;0.30;;;11.40;99.90;;;;;;5073466;28;20433;-77
2023/03/14 08:07:34;;;;;;;0.30;0.20;;;11.60;99.90;;;;;;5073693;28;20453;-77
2023/03/14 08:10:03;;;;;;;0.30;0.20;;;11.60;99.90;;;;;;5073378;28;20453;-77
2023/03/14 08:12:29;;;;;;;0.30;0.20;;;11.80;99.90;;;;;;5073355;28;20445;-77
2023/03/14 08:14:56;;;;;;;0.50;0.27;;;11.90;99.90;;;;;;5073282;28;20472;-77
2023/03/14 08:17:23;;;;;;;0.40;0.30;;;11.90;99.90;;;;;;5072958;28;20884;-77
2023/03/14 08:19:50;;;;;;;0.30;0.30;;;11.90;99.90;;;;;;5073196;28;20488;-77
2023/03/14 08:22:16;;;;;;;0.30;0.20;;;12.10;99.90;;;;;;5072984;28;20434;-77
2023/03/14 08:24:43;;;;;;;0.60;0.40;;;12.10;99.90;;;;;;5073194;28;20452;-77
2023/03/14 08:27:11;;;;;;;0.30;0.20;;;12.30;99.90;;;;;;5072900;28;20905;-77
2023/03/14 08:29:38;;;;;;;0.30;0.20;;;12.50;99.90;;;;;;5073108;28;20465;-77
2023/03/14 08:32:05;;;;;;;0.30;0.30;;;12.70;99.90;;;;;;5073165;28;20446;-77
2023/03/14 08:34:33;;;;;;;0.30;0.30;;;12.70;99.90;;;;;;5073116;28;20453;-77
2023/03/14 08:37:00;;;;;;;0.40;0.30;;;12.50;99.90;;;;;;5073109;28;20458;-77
2023/03/14 08:39:27;;;;;;;0.30;0.30;;;12.40;99.90;;;;;;5072919;28;20489;-76
2023/03/14 08:41:53;;;;;;;0.30;0.20;;;12.30;99.90;;;;;;5073516;28;20949;-77
2023/03/14 08:44:21;;;;;;;0.30;0.20;;;12.10;99.90;;;;;;5076583;28;20884;-77
2023/03/14 08:46:48;;;;;;;0.60;0.53;;;11.80;99.90;;;;;;5076633;28;20477;-77
2023/03/14 08:49:15;;;;;;;0.30;0.30;;;11.80;99.90;;;;;;5076524;28;20856;-77
2023/03/14 08:51:42;;;;;;;0.30;0.30;;;11.90;99.90;;;;;;5076864;28;20481;-76
2023/03/14 08:54:11;;;;;;;0.30;0.27;;;12.00;99.90;;;;;;5076764;28;20442;-77
2023/03/14 08:56:38;;;;;;;0.30;0.20;;;12.10;99.90;;;;;;5076734;28;20453;-76
2023/03/14 08:59:05;;;;;;;0.30;0.30;;;12.00;99.90;;;;;;5076601;28;20508;-77
2023/03/14 09:01:33;;;;;;;0.30;0.20;;;12.00;99.90;;;;;;5076583;28;20489;-77
2023/03/14 09:04:00;;;;;;;0.30;0.20;;;11.80;99.90;;;;;;5076584;28;20453;-77
2023/03/14 09:06:27;;;;;;;0.30;0.27;;;11.70;99.90;;;;;;5076237;28;20928;-77
2023/03/14 09:08:53;;;;;;;0.33;0.27;;;11.60;99.90;;;;;;5076092;28;21016;-77
2023/03/14 09:11:20;;;;;;;0.30;0.20;;;11.40;99.90;;;;;;5076465;28;20446;-77
2023/03/14 09:13:48;;;;;;;0.30;0.20;;;11.30;99.90;;;;;;5076451;28;20452;-77
2023/03/14 09:16:15;;;;;;;0.60;0.30;;;11.30;99.90;;;;;;5076045;28;20445;-77
2023/03/14 09:18:43;;;;;;;0.30;0.30;;;11.30;99.90;;;;;;5076079;28;20460;-76
2023/03/14 09:21:10;;;;;;;0.30;0.30;;;11.10;99.90;;;;;;5075929;28;20477;-77
2023/03/14 09:23:36;;;;;;;0.30;0.20;;;11.20;99.90;;;;;;5076254;28;20540;-77
2023/03/14 09:26:03;;;;;;;0.30;0.30;;;11.20;99.90;;;;;;5076201;28;20797;-77
2023/03/14 09:28:30;;;;;;;0.30;0.27;;;11.30;99.90;;;;;;5076157;28;20476;-77
2023/03/14 09:30:57;;;;;;;0.30;0.20;;;11.50;99.90;;;;;;5076299;28;20434;-77
2023/03/14 09:33:24;;;;;;;0.30;0.20;;;11.50;99.90;;;;;;5075822;28;20891;-81
2023/03/14 09:35:52;;;;;;;0.30;0.30;;;11.60;99.90;;;;;;5075757;28;20972;-80
2023/03/14 09:38:20;;;;;;;0.30;0.20;;;11.70;99.90;;;;;;5075978;28;20477;-80
2023/03/14 09:40:48;;;;;;;0.30;0.30;;;12.00;99.90;;;;;;5076027;28;20478;-80
2023/03/14 09:43:16;;;;;;;0.30;0.20;;;12.10;99.90;;;;;;5075966;28;20457;-78
2023/03/14 09:45:46;;;;;;;0.30;0.27;;;12.10;99.90;;;;;;5075527;28;20477;-78
2023/03/14 09:48:17;;;;;;;0.30;0.20;;;11.90;99.90;;;;;;5075817;28;20478;-79
2023/03/14 09:50:47;;;;;;;0.30;0.30;;;11.80;99.90;;;;;;5075805;28;20446;-79
2023/03/14 09:53:18;;;;;;;0.30;0.30;;;11.90;99.90;;;;;;5074605;28;20909;-79
2023/03/14 09:55:48;;;;;;;0.30;0.20;;;12.10;99.90;;;;;;5075653;28;20430;-79
2023/03/14 09:58:18;;;;;;;0.30;0.30;;;12.50;99.90;;;;;;5075633;28;20472;-79
2023/03/14 10:00:45;;;;;;;0.40;0.30;;;13.10;99.90;;;;;;5075577;28;20465;-79
2023/03/14 10:03:29;;;;;;;0.30;0.20;;;13.60;99.90;;;;;;5075289;28;20441;-79
2023/03/14 10:05:57;;;;;;;0.30;0.20;;;14.20;99.90;;;;;;5074442;28;20461;-79
2023/03/14 10:08:25;;;;;;;4.67;0.40;;;14.60;99.90;;;;;;5075153;28;20457;-79
2023/03/14 10:10:53;;;;;;;0.40;0.33;;;14.90;99.90;;;;;;5075047;28;20949;-79
2023/03/14 10:13:24;;;;;;;0.30;0.20;;;15.10;99.90;;;;;;5075026;28;20807;-79
2023/03/14 10:15:54;;;;;;;0.70;0.30;;;15.70;99.90;;;;;;5075378;28;20440;-79
2023/03/14 10:18:23;;;;;;;0.30;0.30;;;15.60;99.90;;;;;;5075250;28;20479;-79
2023/03/14 10:21:02;;;;;;;3.77;0.40;;;15.40;99.90;;;;;;5075131;28;20499;-79
2023/03/14 10:23:32;;;;;;;0.30;0.20;;;15.00;99.90;;;;;;5075519;28;20459;-79
2023/03/14 10:26:04;;;;;;;0.30;0.20;;;14.50;99.90;;;;;;5075128;28;20502;-79
2023/03/14 10:28:34;;;;;;;0.60;0.30;;;13.90;99.90;;;;;;5075060;28;20466;-79
2023/03/14 10:31:01;;;;;;;0.30;0.20;;;13.60;99.90;;;;;;5074735;28;21003;-79
2023/03/14 10:33:30;;;;;;;0.40;0.40;;;13.60;99.90;;;;;;5074730;28;20805;-79
2023/03/14 10:36:01;;;;;;;0.30;0.23;;;13.80;99.90;;;;;;5074581;28;20819;-79
2023/03/14 10:38:31;;;;;;;0.40;0.30;;;13.70;99.90;;;;;;5074801;28;20487;-79
2023/03/14 10:41:18;;;;;;;0.43;0.30;;;13.70;99.90;;;;;;5074747;28;20999;-79
2023/03/14 10:43:50;;;;;;;0.30;0.20;;;13.60;99.90;;;;;;5075148;28;20460;-79
2023/03/14 10:46:34;;;;;;;0.30;0.20;;;13.30;99.90;;;;;;5074214;28;20473;-79
2023/03/14 10:49:06;;;;;;;0.30;0.20;;;13.20;99.90;;;;;;5074635;28;20843;-78
2023/03/14 10:51:33;;;;;;;0.40;0.33;;;12.80;99.90;;;;;;5074358;28;20430;-78
2023/03/14 10:54:03;;;;;;;0.40;0.30;;;12.70;99.90;;;;;;5074443;28;20454;-79
2023/03/14 10:56:36;;;;;;;0.30;0.30;;;12.50;99.90;;;;;;5074189;28;20782;-79
2023/03/14 10:59:07;;;;;;;0.30;0.30;;;12.50;99.90;;;;;;5074437;28;20472;-79
2023/03/14 11:01:42;;;;;;;0.30;0.30;;;12.50;99.90;;;;;;5074101;28;20473;-79
2023/03/14 11:04:19;;;;;;;0.30;0.30;;;12.40;99.90;;;;;;5074130;28;20414;-79
2023/03/14 11:06:54;;;;;;;0.30;0.20;;;12.50;99.90;;;;;;5074242;28;20433;-79
2023/03/14 11:09:30;;;;;;;0.30;0.30;;;12.50;99.90;;;;;;5074246;28;20469;-79
2023/03/14 11:12:04;;;;;;;0.47;0.30;;;12.30;99.90;;;;;;5074269;28;20421;-81
2023/03/14 11:14:37;;;;;;;0.30;0.20;;;12.10;99.90;;;;;;5073896;28;20859;-79
2023/03/14 11:17:16;;;;;;;0.40;0.30;;;11.90;99.90;;;;;;5073864;28;20940;-79
2023/03/14 11:19:51;;;;;;;0.40;0.30;;;11.80;99.90;;;;;;5074063;28;20469;-79
2023/03/14 11:22:24;;;;;;;0.30;0.30;;;11.70;99.90;;;;;;5073690;28;20476;-79
2023/03/14 11:25:15;;;;;;;0.30;0.30;;;11.50;99.90;;;;;;5073742;28;20920;-79
2023/03/14 11:27:44;;;;;;;0.30;0.20;;;11.50;99.90;;;;;;5073921;28;20445;-78
2023/03/14 11:30:19;;;;;;;0.30;0.30;;;11.30;99.90;;;;;;5073876;28;20449;-78
2023/03/14 11:32:49;;;;;;;0.30;0.30;;;11.30;99.90;;;;;;5073551;28;20433;-78
2023/03/14 11:35:21;;;;;;;0.30;0.20;;;11.10;99.90;;;;;;5073545;28;20433;-78
2023/03/14 11:37:52;;;;;;;0.30;0.20;;;11.10;99.90;;;;;;5073361;28;20480;-78
2023/03/14 11:40:24;;;;;;;0.30;0.30;;;11.20;99.90;;;;;;5073366;28;20438;-77
2023/03/14 11:42:57;;;;;;;0.30;0.20;;;11.20;99.90;;;;;;5073660;28;20457;-78
2023/03/14 11:45:30;;;;;;;0.30;0.30;;;11.30;99.90;;;;;;5074088;28;20882;-77
2023/03/14 11:48:12;;;;;;;0.30;0.20;;;11.40;99.90;;;;;;5073603;28;20886;-78
2023/03/14 11:50:41;;;;;;;0.30;0.20;;;11.40;99.90;;;;;;5073652;28;20463;-78
2023/03/14 11:53:14;;;;;;;0.30;0.20;;;11.20;99.90;;;;;;5073283;28;20438;-78
2023/03/14 11:55:43;;;;;;;0.30;0.20;;;11.20;99.90;;;;;;5073617;28;20429;-78
2023/03/14 11:58:16;;;;;;;0.40;0.30;;;11.00;99.90;;;;;;5073444;28;20472;-78
2023/03/14 12:00:45;;;;;;;0.30;0.20;;;10.90;99.90;;;;;;5073448;28;20473;-78
2023/03/14 12:03:20;;;;;;;0.30;0.20;;;10.90;99.90;;;;;;5073470;28;20445;-78
2023/03/14 12:05:55;;;;;;;0.30;0.30;;;10.70;99.90;;;;;;5073510;28;20463;-78
2023/03/14 12:08:45;;;;;;;0.30;0.20;;;10.70;99.90;;;;;;5073288;28;20469;-78
2023/03/14 12:11:21;;;;;;;0.70;0.30;;;10.60;99.90;;;;;;5073090;28;20434;-78
2023/03/14 12:13:51;;;;;;;0.30;0.20;;;10.70;99.90;;;;;;5073052;28;20917;-78
2023/03/14 12:16:31;;;;;;;0.30;0.20;;;10.80;99.90;;;;;;5072780;28;20430;-78
2023/03/14 12:19:13;;;;;;;0.30;0.20;;;11.10;99.90;;;;;;5073207;28;20507;-78
2023/03/14 12:21:50;;;;;;;0.30;0.20;;;11.30;99.90;;;;;;5073223;28;20470;-78
2023/03/14 12:24:20;;;;;;;0.30;0.30;;;11.30;99.90;;;;;;5073290;28;20433;-78
2023/03/14 12:26:53;;;;;;;0.30;0.20;;;11.20;99.90;;;;;;5074336;28;20453;-79
2023/03/14 12:29:20;;;;;;;0.30;0.30;;;11.30;99.90;;;;;;5073181;28;20492;-79
2023/03/14 12:31:48;;;;;;;0.30;0.30;;;11.30;99.90;;;;;;5073109;28;20445;-79
2023/03/14 12:34:29;;;;;;;0.30;0.30;;;11.40;99.90;;;;;;5073184;28;20442;-79
2023/03/14 12:37:15;;;;;;;0.30;0.30;;;11.40;99.90;;;;;;5072786;28;20959;-78
2023/03/14 12:39:50;;;;;;;0.40;0.30;;;11.50;99.90;;;;;;5072013;28;20469;-79
2023/03/14 12:42:36;;;;;;;0.80;0.30;;;11.20;99.90;;;;;;5073002;28;20476;-79
2023/03/14 12:45:22;;;;;;;0.40;0.30;;;11.20;99.90;;;;;;5072854;28;20437;-78
2023/03/14 12:48:02;;;;;;;0.30;0.20;;;11.00;99.90;;;;;;5072663;28;20988;-79
2023/03/14 12:50:35;;;;;;;0.40;0.30;;;10.70;99.90;;;;;;5073025;28;20469;-78
2023/03/14 12:53:44;;;;;;;0.60;0.57;;;10.70;99.90;;;;;;5072966;28;20441;-79
2023/03/14 12:56:27;;;;;;;0.37;0.30;;;10.70;99.90;;;;;;5073665;28;20827;-79
2023/03/14 12:59:19;;;;;;;0.30;0.20;;;10.60;99.90;;;;;;5071115;28;20480;-79
2023/03/14 13:01:55;;;;;;;0.30;0.20;;;10.50;99.90;;;;;;5072802;28;20492;-79
2023/03/14 13:04:28;;;;;;;0.37;0.30;;;10.60;99.90;;;;;;5072909;28;20441;-79